Time;durP1;ratioP1;P1;durP2;ratioP2;P2;SDS_P1;SDS_P2;PMS_P1;PMS_P2;Temp;Humidity;BMP_temperature;BMP_pressure;BME280_temperature;BME280_humidity;BME280_pressure;Samples;Min_cycle;Max_cycle;Signal;HPM_P1;HPM_P2
2024/02/29 00:00:35;;;;;;;;;;;;;;;19.59;46.34;101660.44;2066458;28;6165;-72
2024/02/29 00:01:37;;;;;;;;;;;;;;;19.60;46.63;101659.06;2067711;28;2735;-72
2024/02/29 00:02:39;;;;;;;;;;;;;;;19.60;46.57;101658.31;2067176;28;2222;-72
2024/02/29 00:03:41;;;;;;;;;;;;;;;19.59;46.58;101656.81;2066476;28;2553;-73
2024/02/29 00:04:42;;;;;;;;;;;;;;;19.58;46.57;101658.94;2066465;28;2594;-72
2024/02/29 00:05:44;;;;;;;;;;;;;;;19.58;46.55;101653.19;2066671;28;2616;-72
2024/02/29 00:06:46;;;;;;;;;;;;;;;19.58;46.62;101653.19;2065836;28;2693;-72
2024/02/29 00:07:47;;;;;;;;;;;;;;;19.57;46.70;101650.94;2068608;28;1711;-72
2024/02/29 00:08:49;;;;;;;;;;;;;;;19.56;46.54;101655.19;2068953;28;2262;-73
2024/02/29 00:09:50;;;;;;;;;;;;;;;19.57;46.63;101651.69;2069015;28;1700;-72
2024/02/29 00:10:51;;;;;;;;;;;;;;;19.57;46.60;101650.94;2066550;28;2510;-72
2024/02/29 00:11:53;;;;;;;;;;;;;;;19.56;46.51;101647.34;2068999;28;2513;-72
2024/02/29 00:12:55;;;;;;;;;;;;;;;19.56;46.53;101644.47;2068872;28;2561;-72
2024/02/29 00:13:56;;;;;;;;;;;;;;;19.56;46.60;101643.69;2068442;28;1854;-72
2024/02/29 00:14:57;;;;;;;;;;;;;;;19.56;46.60;101643.69;2068458;28;1723;-72
2024/02/29 00:15:59;;;;;;;;;;;;;;;19.56;46.67;101643.69;2067503;28;2124;-73
2024/02/29 00:17:00;;;;;;;;;;;;;;;19.54;46.74;101647.19;2068231;28;1643;-72
2024/02/29 00:18:02;;;;;;;;;;;;;;;19.55;46.69;101642.94;2067695;28;1731;-72
2024/02/29 00:19:04;;;;;;;;;;;;;;;19.55;46.63;101647.94;2066179;28;2723;-71
2024/02/29 00:20:08;;;;;;;;;;;;;;;19.55;46.54;101637.19;2066949;28;2490;-72
2024/02/29 00:21:10;;;;;;;;;;;;;;;19.55;46.61;101642.94;2068035;28;2455;-72
2024/02/29 00:22:11;;;;;;;;;;;;;;;19.56;46.67;101632.97;2068952;28;1621;-72
2024/02/29 00:23:13;;;;;;;;;;;;;;;19.56;46.72;101641.59;2067880;28;1830;-72
2024/02/29 00:24:14;;;;;;;;;;;;;;;19.56;46.50;101632.97;2066574;28;2103;-72
2024/02/29 00:25:16;;;;;;;;;;;;;;;19.57;46.74;101637.31;2067247;28;2510;-72
2024/02/29 00:26:18;;;;;;;;;;;;;;;19.59;46.43;101636.72;2066082;28;2613;-72
2024/02/29 00:27:19;;;;;;;;;;;;;;;19.59;46.51;101630.97;2066527;28;2675;-72
2024/02/29 00:28:21;;;;;;;;;;;;;;;19.58;46.56;101630.19;2066953;28;2047;-73
2024/02/29 00:29:27;;;;;;;;;;;;;;;19.60;46.50;101644.69;2067788;28;1656;-72
2024/02/29 00:30:28;;;;;;;;;;;;;;;19.60;46.45;101644.69;2067252;28;6085;-72
2024/02/29 00:31:30;;;;;;;;;;;;;;;19.60;46.53;101644.69;2066085;28;2554;-72
2024/02/29 00:32:31;;;;;;;;;;;;;;;19.61;46.52;101639.72;2066491;28;2685;-72
2024/02/29 00:33:33;;;;;;;;;;;;;;;19.59;46.49;101637.47;2065506;28;2584;-72
2024/02/29 00:34:34;;;;;;;;;;;;;;;19.59;46.38;101634.59;2064967;28;2736;-73
2024/02/29 00:35:35;;;;;;;;;;;;;;;19.60;46.46;101632.44;2066355;28;2723;-72
2024/02/29 00:36:37;;;;;;;;;;;;;;;19.60;46.34;101632.44;2068338;28;1846;-73
2024/02/29 00:37:38;;;;;;;;;;;;;;;19.59;46.44;101628.84;2067095;28;2081;-72
2024/02/29 00:38:40;;;;;;;;;;;;;;;19.59;46.57;101625.22;2069458;28;2050;-72
2024/02/29 00:39:42;;;;;;;;;;;;;;;19.58;46.49;101635.94;2068960;28;2101;-72
2024/02/29 00:40:43;;;;;;;;;;;;;;;19.57;46.59;101622.97;2068407;28;2105;-72
2024/02/29 00:41:44;;;;;;;;;;;;;;;19.57;46.67;101622.97;2065140;28;2688;-72
2024/02/29 00:42:46;;;;;;;;;;;;;;;19.57;46.53;101627.97;2067122;28;2549;-72
2024/02/29 00:43:47;;;;;;;;;;;;;;;19.57;46.58;101633.72;2066189;28;2594;-72
2024/02/29 00:44:48;;;;;;;;;;;;;;;19.56;46.64;101627.22;2067082;28;2785;-72
2024/02/29 00:45:50;;;;;;;;;;;;;;;19.56;46.65;101624.34;2067070;28;2112;-72
2024/02/29 00:46:51;;;;;;;;;;;;;;;19.56;46.67;101626.44;2068431;28;1575;-72
2024/02/29 00:47:54;;;;;;;;;;;;;;;19.56;46.60;101637.94;2066234;28;2573;-73
2024/02/29 00:48:56;;;;;;;;;;;;;;;19.55;46.70;101631.44;2066591;28;2807;-72
2024/02/29 00:49:57;;;;;;;;;;;;;;;19.55;46.68;101637.19;2067225;28;2111;-72
2024/02/29 00:50:59;;;;;;;;;;;;;;;19.56;46.68;101637.94;2069664;28;2109;-72
2024/02/29 00:52:00;;;;;;;;;;;;;;;19.55;46.52;101640.06;2066039;28;2720;-72
2024/02/29 00:53:01;;;;;;;;;;;;;;;19.56;46.65;101644.47;2066534;28;2619;-72
2024/02/29 00:54:03;;;;;;;;;;;;;;;19.56;46.48;101644.47;2065793;28;2738;-72
2024/02/29 00:55:07;;;;;;;;;;;;;;;19.56;46.63;101641.59;2068935;28;1571;-72
2024/02/29 00:56:08;;;;;;;;;;;;;;;19.55;46.77;101634.31;2068459;28;1719;-72
2024/02/29 00:57:10;;;;;;;;;;;;;;;19.57;46.50;101645.19;2069445;28;1515;-72
2024/02/29 00:58:11;;;;;;;;;;;;;;;19.57;46.57;101645.19;2067539;28;2018;-72
2024/02/29 00:59:12;;;;;;;;;;;;;;;19.56;46.62;101637.94;2067493;28;2491;-72
2024/02/29 01:00:14;;;;;;;;;;;;;;;19.56;46.48;101644.47;2067696;28;6102;-72
2024/02/29 01:01:15;;;;;;;;;;;;;;;19.58;46.57;101644.56;2068938;28;2570;-72
2024/02/29 01:02:17;;;;;;;;;;;;;;;19.58;46.53;101644.56;2067424;28;2521;-72
2024/02/29 01:03:18;;;;;;;;;;;;;;;19.58;46.44;101641.69;2069011;28;1556;-72
2024/02/29 01:04:19;;;;;;;;;;;;;;;19.58;46.42;101641.69;2066826;28;1922;-72
2024/02/29 01:05:21;;;;;;;;;;;;;;;19.60;46.42;101644.69;2066944;28;2282;-72
2024/02/29 01:06:22;;;;;;;;;;;;;;;19.60;46.52;101644.69;2069190;28;1572;-72
2024/02/29 01:07:24;;;;;;;;;;;;;;;19.60;46.50;101636.06;2068162;28;2105;-72
2024/02/29 01:08:25;;;;;;;;;;;;;;;19.60;46.34;101643.94;2068430;28;2298;-72
2024/02/29 01:09:27;;;;;;;;;;;;;;;19.59;46.55;101634.59;2068748;28;2128;-72
2024/02/29 01:10:29;;;;;;;;;;;;;;;19.59;46.47;101631.72;2070041;28;2198;-72
2024/02/29 01:11:33;;;;;;;;;;;;;;;19.58;46.45;101630.19;2066700;28;2543;-72
2024/02/29 01:12:39;;;;;;;;;;;;;;;19.58;46.53;101624.44;2066203;28;2510;-72
2024/02/29 01:13:41;;;;;;;;;;;;;;;19.57;46.54;101634.47;2067773;28;1588;-72
2024/02/29 01:14:42;;;;;;;;;;;;;;;19.58;46.50;101624.44;2064819;28;2558;-72
2024/02/29 01:15:45;;;;;;;;;;;;;;;19.58;46.55;101630.19;2066202;28;2571;-72
2024/02/29 01:16:46;;;;;;;;;;;;;;;19.57;46.52;101622.97;2065907;28;2562;-72
2024/02/29 01:17:48;;;;;;;;;;;;;;;19.55;46.50;101614.22;2066235;28;2600;-73
2024/02/29 01:18:52;;;;;;;;;;;;;;;19.56;46.61;101615.72;2064370;28;2518;-72
2024/02/29 01:19:53;;;;;;;;;;;;;;;19.56;46.54;101620.72;2068801;28;1546;-73
2024/02/29 01:20:54;;;;;;;;;;;;;;;19.56;46.56;101624.34;2068501;28;1607;-72
2024/02/29 01:21:56;;;;;;;;;;;;;;;19.56;46.51;101618.59;2065508;28;2633;-72
2024/02/29 01:22:57;;;;;;;;;;;;;;;19.54;46.59;101618.47;2064395;28;2526;-73
2024/02/29 01:23:59;;;;;;;;;;;;;;;19.54;46.58;101618.47;2067804;28;2976;-72
2024/02/29 01:25:00;;;;;;;;;;;;;;;19.55;46.51;101622.84;2066921;28;1596;-72
2024/02/29 01:26:04;;;;;;;;;;;;;;;19.54;46.61;101612.72;2062055;28;2582;-72
2024/02/29 01:27:05;;;;;;;;;;;;;;;19.54;46.63;101615.59;2066167;28;2569;-72
2024/02/29 01:28:06;;;;;;;;;;;;;;;19.55;46.67;101619.22;2067374;28;2510;-72
2024/02/29 01:29:08;;;;;;;;;;;;;;;19.55;46.55;101617.09;2067573;28;1743;-73
2024/02/29 01:30:09;;;;;;;;;;;;;;;19.54;46.60;101611.97;2067994;28;6092;-72
2024/02/29 01:31:11;;;;;;;;;;;;;;;19.54;46.57;101606.97;2066170;28;2609;-72
2024/02/29 01:32:12;;;;;;;;;;;;;;;19.55;46.61;101608.47;2066473;28;1669;-72
2024/02/29 01:33:26;;;;;;;;;;;;;;;19.55;46.57;101599.84;2067459;28;1667;-72
2024/02/29 01:34:27;;;;;;;;;;;;;;;19.56;46.53;101603.47;2065029;28;2654;-72
2024/02/29 01:35:29;;;;;;;;;;;;;;;19.55;46.61;101602.72;2067576;28;2498;-71
2024/02/29 01:36:30;;;;;;;;;;;;;;;19.57;46.57;101602.84;2067948;28;1561;-72
2024/02/29 01:37:31;;;;;;;;;;;;;;;19.56;46.35;101598.50;2067890;28;1901;-72
2024/02/29 01:38:33;;;;;;;;;;;;;;;19.58;46.42;101600.72;2066689;28;2167;-72
2024/02/29 01:39:34;;;;;;;;;;;;;;;19.58;46.38;101606.47;2065948;28;2561;-72
2024/02/29 01:40:35;;;;;;;;;;;;;;;19.56;46.42;101604.25;2065920;28;2649;-72
2024/02/29 01:41:37;;;;;;;;;;;;;;;19.58;46.44;101607.22;2067837;28;1590;-72
2024/02/29 01:42:41;;;;;;;;;;;;;;;19.58;46.51;101604.34;2068328;28;1947;-72
2024/02/29 01:43:50;;;;;;;;;;;;;;;19.58;46.51;101607.22;2067686;28;2564;-72
2024/02/29 01:44:55;;;;;;;;;;;;;;;19.58;46.48;101612.97;2066735;28;2193;-72
2024/02/29 01:46:09;;;;;;;;;;;;;;;19.58;46.44;101603.59;2067771;28;2381;-72
2024/02/29 01:47:12;;;;;;;;;;;;;;;19.58;46.51;101607.22;2066387;28;2626;-72
2024/02/29 01:48:14;;;;;;;;;;;;;;;19.58;46.40;101607.22;2066088;28;2585;-72
2024/02/29 01:49:16;;;;;;;;;;;;;;;19.57;46.51;101602.84;2065618;28;2591;-72
2024/02/29 01:50:19;;;;;;;;;;;;;;;19.56;46.53;101601.38;2067556;28;2439;-73
2024/02/29 01:51:21;;;;;;;;;;;;;;;19.57;46.49;101597.09;2069934;28;2280;-72
2024/02/29 01:52:23;;;;;;;;;;;;;;;19.57;46.51;101597.09;2069744;28;1867;-73
2024/02/29 01:53:24;;;;;;;;;;;;;;;19.56;46.51;101592.75;2069215;28;2216;-72
2024/02/29 01:54:26;;;;;;;;;;;;;;;19.56;46.54;101592.75;2067108;28;2558;-72
2024/02/29 01:55:27;;;;;;;;;;;;;;;19.56;46.50;101587.00;2068564;28;2093;-72
2024/02/29 01:56:29;;;;;;;;;;;;;;;19.55;46.61;101584.75;2068247;28;2148;-71
2024/02/29 01:57:31;;;;;;;;;;;;;;;19.55;46.53;101585.50;2067517;28;1710;-71
2024/02/29 01:58:33;;;;;;;;;;;;;;;19.55;46.58;101579.75;2068781;28;1607;-72
2024/02/29 01:59:35;;;;;;;;;;;;;;;19.54;46.60;101577.47;2068795;28;1664;-71
2024/02/29 02:00:36;;;;;;;;;;;;;;;19.54;46.56;101575.38;2066273;28;6819;-71
2024/02/29 02:01:38;;;;;;;;;;;;;;;19.53;46.49;101571.00;2068061;28;2605;-72
2024/02/29 02:02:40;;;;;;;;;;;;;;;19.54;46.59;101577.47;2065914;28;2719;-72
2024/02/29 02:03:42;;;;;;;;;;;;;;;19.53;46.59;101576.75;2068369;28;2601;-72
2024/02/29 02:04:43;;;;;;;;;;;;;;;19.52;46.52;101581.00;2068034;28;2593;-71
2024/02/29 02:05:44;;;;;;;;;;;;;;;19.53;46.58;101564.50;2069168;28;1584;-72
2024/02/29 02:06:46;;;;;;;;;;;;;;;19.53;46.45;101571.00;2068212;28;2090;-72
2024/02/29 02:07:48;;;;;;;;;;;;;;;19.53;46.57;101562.38;2068136;28;2614;-72
2024/02/29 02:08:49;;;;;;;;;;;;;;;19.54;46.67;101566.75;2067882;28;2566;-71
2024/02/29 02:09:50;;;;;;;;;;;;;;;19.55;46.41;101568.25;2069331;28;2547;-72
2024/02/29 02:10:52;;;;;;;;;;;;;;;19.55;46.41;101568.25;2069458;28;2104;-72
2024/02/29 02:11:53;;;;;;;;;;;;;;;19.55;46.32;101562.50;2067111;28;2538;-71
2024/02/29 02:12:54;;;;;;;;;;;;;;;19.55;46.43;101568.25;2067185;28;2573;-71
2024/02/29 02:13:56;;;;;;;;;;;;;;;19.56;46.24;101564.03;2068603;28;2644;-72
2024/02/29 02:14:57;;;;;;;;;;;;;;;19.56;46.41;101563.25;2066906;28;2559;-64
2024/02/29 02:15:59;;;;;;;;;;;;;;;19.56;46.37;101558.28;2068326;28;2553;-64
2024/02/29 02:17:00;;;;;;;;;;;;;;;19.58;46.38;101567.00;2066481;28;2228;-65
2024/02/29 02:18:02;;;;;;;;;;;;;;;19.58;46.38;101554.75;2069208;28;1786;-64
2024/02/29 02:19:10;;;;;;;;;;;;;;;19.57;46.36;101562.63;2067562;28;2136;-64
2024/02/29 02:20:15;;;;;;;;;;;;;;;19.57;46.42;101554.00;2069705;28;1695;-65
2024/02/29 02:21:16;;;;;;;;;;;;;;;19.59;46.46;101559.88;2070403;28;2080;-65
2024/02/29 02:22:18;;;;;;;;;;;;;;;19.56;46.40;101552.53;2069785;28;2089;-64
2024/02/29 02:23:20;;;;;;;;;;;;;;;19.57;46.49;101556.16;2067027;28;2604;-64
2024/02/29 02:24:24;;;;;;;;;;;;;;;19.55;46.37;101545.28;2068903;28;1841;-64
2024/02/29 02:25:25;;;;;;;;;;;;;;;19.55;46.46;101539.53;2069700;28;2110;-65
2024/02/29 02:26:26;;;;;;;;;;;;;;;19.54;46.24;101540.91;2068707;28;2105;-64
2024/02/29 02:27:28;;;;;;;;;;;;;;;19.55;46.46;101545.28;2066582;28;1801;-64
2024/02/29 02:28:29;;;;;;;;;;;;;;;19.55;46.58;101547.41;2067188;28;1783;-65
2024/02/29 02:29:31;;;;;;;;;;;;;;;19.55;46.47;101533.78;2066962;28;2074;-64
2024/02/29 02:30:32;;;;;;;;;;;;;;;19.54;46.37;101537.28;2066558;28;6619;-65
2024/02/29 02:31:33;;;;;;;;;;;;;;;19.53;46.56;101530.78;2066330;28;2503;-64
2024/02/29 02:32:35;;;;;;;;;;;;;;;19.53;46.49;101527.16;2069165;28;2582;-64
2024/02/29 02:33:37;;;;;;;;;;;;;;;19.52;46.51;101535.03;2067725;28;2700;-64
2024/02/29 02:34:38;;;;;;;;;;;;;;;19.53;46.47;101524.28;2068185;28;2896;-65
2024/02/29 02:35:39;;;;;;;;;;;;;;;19.53;46.60;101515.66;2067605;28;2515;-64
2024/02/29 02:36:41;;;;;;;;;;;;;;;19.52;46.47;101529.28;2069227;28;2574;-64
2024/02/29 02:37:42;;;;;;;;;;;;;;;19.52;46.40;101523.56;2068734;28;1947;-64
2024/02/29 02:38:43;;;;;;;;;;;;;;;19.51;46.41;101527.03;2067472;28;2231;-64
2024/02/29 02:39:45;;;;;;;;;;;;;;;19.51;46.54;101515.53;2068281;28;2086;-64
2024/02/29 02:40:46;;;;;;;;;;;;;;;19.52;46.57;101522.81;2067890;28;2196;-64
2024/02/29 02:41:48;;;;;;;;;;;;;;;19.52;46.53;101517.81;2067577;28;1693;-65
2024/02/29 02:42:49;;;;;;;;;;;;;;;19.52;46.40;101517.81;2067043;28;2818;-64
2024/02/29 02:43:51;;;;;;;;;;;;;;;19.52;46.49;101520.69;2067674;28;2581;-64
2024/02/29 02:44:52;;;;;;;;;;;;;;;19.53;46.47;101519.28;2067986;28;2510;-64
2024/02/29 02:45:53;;;;;;;;;;;;;;;19.54;46.30;101515.06;2066470;28;2543;-65
2024/02/29 02:46:55;;;;;;;;;;;;;;;19.53;46.32;101510.66;2067031;28;2542;-64
2024/02/29 02:47:56;;;;;;;;;;;;;;;19.54;46.33;101503.56;2067060;28;2589;-64
2024/02/29 02:48:58;;;;;;;;;;;;;;;19.54;46.38;101509.31;2065507;28;2645;-64
2024/02/29 02:49:59;;;;;;;;;;;;;;;19.55;46.32;101505.06;2066016;28;2592;-64
2024/02/29 02:51:00;;;;;;;;;;;;;;;19.55;46.22;101505.06;2067948;28;2664;-65
2024/02/29 02:52:02;;;;;;;;;;;;;;;19.55;46.31;101499.31;2068233;28;2645;-64
2024/02/29 02:53:04;;;;;;;;;;;;;;;19.55;46.21;101496.44;2067084;28;2610;-64
2024/02/29 02:54:05;;;;;;;;;;;;;;;19.55;46.32;101489.94;2068358;28;2588;-65
2024/02/29 02:55:07;;;;;;;;;;;;;;;19.54;46.29;101492.06;2065524;28;2569;-64
2024/02/29 02:56:08;;;;;;;;;;;;;;;19.55;46.32;101496.44;2066990;28;2549;-64
2024/02/29 02:57:10;;;;;;;;;;;;;;;19.54;46.35;101492.06;2067981;28;2620;-64
2024/02/29 02:58:11;;;;;;;;;;;;;;;19.54;46.34;101492.06;2068119;28;2514;-64
2024/02/29 02:59:12;;;;;;;;;;;;;;;19.54;46.39;101500.69;2065734;28;2598;-64
2024/02/29 03:00:14;;;;;;;;;;;;;;;19.54;46.17;101486.31;2066293;28;6448;-64
2024/02/29 03:01:16;;;;;;;;;;;;;;;19.54;46.37;101494.19;2067396;28;2708;-64
2024/02/29 03:02:18;;;;;;;;;;;;;;;19.54;46.43;101491.31;2067278;28;2523;-64
2024/02/29 03:03:19;;;;;;;;;;;;;;;19.53;46.43;101489.81;2064578;28;2569;-64
2024/02/29 03:04:21;;;;;;;;;;;;;;;19.53;46.43;101487.69;2066640;28;2649;-64
2024/02/29 03:05:22;;;;;;;;;;;;;;;19.53;46.33;101495.56;2067539;28;2593;-65
2024/02/29 03:06:24;;;;;;;;;;;;;;;19.51;46.45;101493.31;2066844;28;2751;-65
2024/02/29 03:07:25;;;;;;;;;;;;;;;19.50;46.46;101488.94;2067208;28;2527;-64
2024/02/29 03:08:26;;;;;;;;;;;;;;;19.51;46.34;101495.44;2067548;28;2577;-64
2024/02/29 03:09:28;;;;;;;;;;;;;;;19.50;46.43;101497.56;2067970;28;2639;-64
2024/02/29 03:10:30;;;;;;;;;;;;;;;19.50;46.30;101497.56;2067028;28;2656;-64
2024/02/29 03:11:31;;;;;;;;;;;;;;;19.51;46.28;101493.31;2068680;28;2467;-64
2024/02/29 03:12:32;;;;;;;;;;;;;;;19.50;46.30;101494.69;2068796;28;2537;-64
2024/02/29 03:13:34;;;;;;;;;;;;;;;19.49;46.41;101490.31;2067179;28;2527;-64
2024/02/29 03:14:35;;;;;;;;;;;;;;;19.49;46.53;101501.81;2067089;28;2979;-64
2024/02/29 03:15:37;;;;;;;;;;;;;;;19.50;46.38;101503.31;2066389;28;2836;-64
2024/02/29 03:16:38;;;;;;;;;;;;;;;19.50;46.39;101493.94;2067140;28;2569;-64
2024/02/29 03:17:39;;;;;;;;;;;;;;;19.50;46.51;101497.56;2067502;28;2629;-64
2024/02/29 03:18:41;;;;;;;;;;;;;;;19.50;46.34;101494.69;2066699;28;2573;-64
2024/02/29 03:19:42;;;;;;;;;;;;;;;19.51;46.31;101493.31;2067565;28;2617;-65
2024/02/29 03:20:44;;;;;;;;;;;;;;;19.52;46.22;101499.81;2067159;28;2590;-64
2024/02/29 03:21:45;;;;;;;;;;;;;;;19.52;46.36;101494.81;2067648;28;2617;-64
2024/02/29 03:22:46;;;;;;;;;;;;;;;19.53;46.40;101484.81;2067757;28;2557;-64
2024/02/29 03:23:48;;;;;;;;;;;;;;;19.53;46.27;101487.69;2068281;28;2690;-64
2024/02/29 03:24:49;;;;;;;;;;;;;;;19.53;46.38;101478.31;2067566;28;2691;-65
2024/02/29 03:25:51;;;;;;;;;;;;;;;19.52;46.23;101477.59;2068695;28;2105;-64
2024/02/29 03:26:52;;;;;;;;;;;;;;;19.53;46.30;101473.31;2068084;28;1658;-64
2024/02/29 03:27:54;;;;;;;;;;;;;;;19.54;46.22;101480.59;2066060;28;2712;-64
2024/02/29 03:28:55;;;;;;;;;;;;;;;19.54;46.30;101474.84;2065410;28;2645;-64
2024/02/29 03:29:59;;;;;;;;;;;;;;;19.54;46.14;101474.84;2067404;28;2578;-65
2024/02/29 03:31:00;;;;;;;;;;;;;;;19.54;46.32;101483.47;2066980;28;6212;-65
2024/02/29 03:32:02;;;;;;;;;;;;;;;19.52;46.33;101471.84;2065959;28;2557;-64
2024/02/29 03:33:03;;;;;;;;;;;;;;;19.53;46.26;101479.06;2067753;28;2582;-64
2024/02/29 03:34:05;;;;;;;;;;;;;;;19.53;46.30;101473.31;2067221;28;2676;-64
2024/02/29 03:35:07;;;;;;;;;;;;;;;19.52;46.33;101468.97;2065697;28;2605;-64
2024/02/29 03:36:08;;;;;;;;;;;;;;;19.52;46.31;101477.59;2067159;28;2644;-64
2024/02/29 03:37:09;;;;;;;;;;;;;;;19.52;46.28;101471.84;2065623;28;2645;-65
2024/02/29 03:38:12;;;;;;;;;;;;;;;19.53;46.33;101473.31;2066829;28;2620;-65
2024/02/29 03:39:13;;;;;;;;;;;;;;;19.53;46.28;101478.31;2067774;28;2606;-64
2024/02/29 03:40:14;;;;;;;;;;;;;;;19.53;46.27;101472.59;2066138;28;2819;-64
2024/02/29 03:41:16;;;;;;;;;;;;;;;19.53;46.33;101469.72;2067153;28;2633;-64
2024/02/29 03:42:17;;;;;;;;;;;;;;;19.53;46.23;101473.31;2067435;28;2644;-64
2024/02/29 03:43:19;;;;;;;;;;;;;;;19.54;46.25;101469.09;2067217;28;2672;-64
2024/02/29 03:44:20;;;;;;;;;;;;;;;19.54;46.22;101469.09;2067051;28;2584;-64
2024/02/29 03:45:21;;;;;;;;;;;;;;;19.55;46.23;101459.09;2066511;28;2652;-64
2024/02/29 03:46:23;;;;;;;;;;;;;;;19.55;46.27;101464.84;2067377;28;2659;-64
2024/02/29 03:47:24;;;;;;;;;;;;;;;19.54;46.06;101457.59;2066041;28;2677;-65
2024/02/29 03:48:25;;;;;;;;;;;;;;;19.55;46.17;101459.09;2066758;28;2589;-65
2024/02/29 03:49:27;;;;;;;;;;;;;;;19.57;46.23;101464.22;2064603;28;2571;-64
2024/02/29 03:50:28;;;;;;;;;;;;;;;19.57;46.22;101455.59;2067284;28;2598;-64
2024/02/29 03:51:30;;;;;;;;;;;;;;;19.56;46.12;101457.72;2067639;28;2613;-64
2024/02/29 03:52:32;;;;;;;;;;;;;;;19.57;46.16;101461.34;2067285;28;2581;-64
2024/02/29 03:53:33;;;;;;;;;;;;;;;19.56;46.24;101454.84;2067588;28;2859;-64
2024/02/29 03:54:34;;;;;;;;;;;;;;;19.57;46.21;101456.34;2065401;28;2725;-64
2024/02/29 03:55:36;;;;;;;;;;;;;;;19.58;46.16;101448.47;2067162;28;2156;-65
2024/02/29 03:56:38;;;;;;;;;;;;;;;19.58;46.21;101449.19;2067457;28;2624;-64
2024/02/29 03:57:39;;;;;;;;;;;;;;;19.58;46.20;101445.59;2065475;28;2526;-64
2024/02/29 03:58:41;;;;;;;;;;;;;;;19.59;46.22;101444.22;2066913;28;2565;-64
2024/02/29 03:59:43;;;;;;;;;;;;;;;19.59;46.14;101444.22;2065381;28;2651;-64
2024/02/29 04:00:44;;;;;;;;;;;;;;;19.60;46.27;101445.72;2066243;28;6275;-64
2024/02/29 04:01:49;;;;;;;;;;;;;;;19.60;46.36;101448.59;2067442;28;2586;-64
2024/02/29 04:02:51;;;;;;;;;;;;;;;19.61;46.10;101441.47;2067388;28;2551;-64
2024/02/29 04:03:52;;;;;;;;;;;;;;;19.61;46.23;101447.97;2067472;28;2680;-64
2024/02/29 04:04:54;;;;;;;;;;;;;;;19.63;46.21;101444.44;2066222;28;2581;-64
2024/02/29 04:05:55;;;;;;;;;;;;;;;19.61;46.24;101450.84;2069396;28;1957;-64
2024/02/29 04:06:57;;;;;;;;;;;;;;;19.62;46.17;101445.84;2066849;28;1632;-64
2024/02/29 04:08:03;;;;;;;;;;;;;;;19.62;46.17;101443.69;2068381;28;1692;-64
2024/02/29 04:09:05;;;;;;;;;;;;;;;19.61;46.23;101447.97;2067189;28;2097;-65
2024/02/29 04:10:06;;;;;;;;;;;;;;;19.62;46.13;101446.56;2068562;28;2006;-64
2024/02/29 04:11:08;;;;;;;;;;;;;;;19.61;46.09;101435.72;2070277;28;1685;-64
2024/02/29 04:12:09;;;;;;;;;;;;;;;19.60;46.19;101437.84;2066439;28;2682;-64
2024/02/29 04:13:10;;;;;;;;;;;;;;;19.61;46.23;101439.34;2066591;28;2570;-64
2024/02/29 04:14:12;;;;;;;;;;;;;;;19.62;46.16;101442.97;2067973;28;2545;-64
2024/02/29 04:15:13;;;;;;;;;;;;;;;19.62;46.13;101442.97;2067900;28;2077;-64
2024/02/29 04:16:15;;;;;;;;;;;;;;;19.62;46.10;101446.56;2069027;28;2029;-64
2024/02/29 04:17:17;;;;;;;;;;;;;;;19.60;46.07;101440.69;2068625;28;1661;-64
2024/02/29 04:18:19;;;;;;;;;;;;;;;19.60;46.22;101434.97;2067414;28;1685;-64
2024/02/29 04:19:20;;;;;;;;;;;;;;;19.60;46.25;101437.09;2066345;28;2120;-64
2024/02/29 04:20:22;;;;;;;;;;;;;;;19.60;46.22;101440.69;2068256;28;2066;-64
2024/02/29 04:21:23;;;;;;;;;;;;;;;19.61;46.18;101439.34;2067752;28;2038;-64
2024/02/29 04:22:24;;;;;;;;;;;;;;;19.60;46.10;101432.09;2067784;28;2953;-65
2024/02/29 04:23:26;;;;;;;;;;;;;;;19.60;46.15;101440.69;2066527;28;2588;-64
2024/02/29 04:24:27;;;;;;;;;;;;;;;19.60;46.15;101443.56;2066863;28;2599;-64
2024/02/29 04:25:28;;;;;;;;;;;;;;;19.59;46.16;101436.34;2065628;28;2542;-64
2024/02/29 04:26:30;;;;;;;;;;;;;;;19.60;46.21;101437.84;2066318;28;2487;-65
2024/02/29 04:27:31;;;;;;;;;;;;;;;19.61;46.14;101436.47;2067499;28;2648;-64
2024/02/29 04:28:33;;;;;;;;;;;;;;;19.63;46.04;101447.31;2066693;28;2597;-64
2024/02/29 04:29:34;;;;;;;;;;;;;;;19.60;46.14;101432.09;2066382;28;2701;-64
2024/02/29 04:30:35;;;;;;;;;;;;;;;19.62;46.14;101440.81;2065305;28;6094;-64
2024/02/29 04:31:37;;;;;;;;;;;;;;;19.62;46.07;101440.81;2069033;28;1620;-64
2024/02/29 04:32:38;;;;;;;;;;;;;;;19.63;46.14;101453.06;2067690;28;1677;-64
2024/02/29 04:33:40;;;;;;;;;;;;;;;19.62;46.08;101440.09;2068356;28;1960;-64
2024/02/29 04:34:42;;;;;;;;;;;;;;;19.63;46.34;101445.22;2074708;28;2335;-64
2024/02/29 04:35:43;;;;;;;;;;;;;;;19.64;46.18;101437.34;2075250;28;2379;-64
2024/02/29 04:36:44;;;;;;;;;;;;;;;19.62;46.22;101435.09;2066709;28;2423;-64
2024/02/29 04:37:46;;;;;;;;;;;;;;;19.64;46.27;101431.59;2066275;28;2392;-65
2024/02/29 04:38:49;;;;;;;;;;;;;;;19.64;46.03;101431.59;2066933;28;2502;-64
2024/02/29 04:39:51;;;;;;;;;;;;;;;19.64;46.08;101432.34;2067732;28;2011;-64
2024/02/29 04:40:54;;;;;;;;;;;;;;;19.64;45.98;101426.59;2067853;28;2310;-64
2024/02/29 04:41:56;;;;;;;;;;;;;;;19.65;45.96;101433.84;2065920;28;2443;-64
2024/02/29 04:42:57;;;;;;;;;;;;;;;19.66;46.13;101425.97;2067268;28;2399;-64
2024/02/29 04:43:59;;;;;;;;;;;;;;;19.66;46.02;101425.97;2065718;28;2455;-64
2024/02/29 04:45:00;;;;;;;;;;;;;;;19.66;46.19;101423.84;2066307;28;2499;-64
2024/02/29 04:46:02;;;;;;;;;;;;;;;19.66;45.99;101426.69;2066844;28;2451;-64
2024/02/29 04:47:04;;;;;;;;;;;;;;;19.67;46.12;101424.56;2065079;28;2610;-64
2024/02/29 04:48:05;;;;;;;;;;;;;;;19.66;46.05;101426.69;2068038;28;2483;-64
2024/02/29 04:49:07;;;;;;;;;;;;;;;19.65;46.01;101425.22;2066189;28;2454;-64
2024/02/29 04:50:08;;;;;;;;;;;;;;;19.66;46.15;101426.69;2065715;28;2407;-64
2024/02/29 04:51:10;;;;;;;;;;;;;;;19.66;45.93;101418.09;2067035;28;2412;-63
2024/02/29 04:52:11;;;;;;;;;;;;;;;19.66;45.95;101423.84;2067232;28;2360;-64
2024/02/29 04:53:14;;;;;;;;;;;;;;;19.66;46.12;101428.84;2066152;28;2516;-64
2024/02/29 04:54:15;;;;;;;;;;;;;;;19.65;45.99;101428.09;2066241;28;2443;-64
2024/02/29 04:55:16;;;;;;;;;;;;;;;19.63;46.03;101422.22;2066100;28;2452;-64
2024/02/29 04:56:18;;;;;;;;;;;;;;;19.64;46.17;101420.84;2065948;28;2404;-65
2024/02/29 04:57:19;;;;;;;;;;;;;;;19.64;46.12;101426.59;2074877;28;2502;-64
2024/02/29 04:58:21;;;;;;;;;;;;;;;19.65;46.10;101430.19;2073696;28;2481;-64
2024/02/29 04:59:22;;;;;;;;;;;;;;;19.63;46.03;101419.34;2067622;28;2003;-65
2024/02/29 05:00:24;;;;;;;;;;;;;;;19.63;46.12;101421.47;2066919;28;6259;-64
2024/02/29 05:01:25;;;;;;;;;;;;;;;19.63;46.06;101433.72;2066806;28;1943;-64
2024/02/29 05:02:26;;;;;;;;;;;;;;;19.63;46.24;101425.09;2067374;28;2095;-64
2024/02/29 05:03:28;;;;;;;;;;;;;;;19.62;46.06;101417.84;2067273;28;1672;-64
2024/02/29 05:04:29;;;;;;;;;;;;;;;19.64;46.15;101420.09;2066594;28;1708;-64
2024/02/29 05:05:30;;;;;;;;;;;;;;;19.65;46.18;101425.22;2067237;28;1970;-64
2024/02/29 05:06:32;;;;;;;;;;;;;;;19.64;46.09;101426.59;2067160;28;2864;-65
2024/02/29 05:07:33;;;;;;;;;;;;;;;19.65;46.06;101425.22;2066378;28;2510;-65
2024/02/29 05:08:35;;;;;;;;;;;;;;;19.64;46.15;101426.59;2064747;28;2508;-64
2024/02/29 05:09:36;;;;;;;;;;;;;;;19.65;45.99;101425.22;2066514;28;2424;-64
2024/02/29 05:10:38;;;;;;;;;;;;;;;19.65;45.98;101425.22;2066273;28;2436;-64
2024/02/29 05:11:39;;;;;;;;;;;;;;;19.65;46.03;101430.97;2066700;28;2455;-65
2024/02/29 05:12:41;;;;;;;;;;;;;;;19.65;46.06;101428.09;2066238;28;2571;-64
2024/02/29 05:13:42;;;;;;;;;;;;;;;19.66;46.04;101423.84;2066264;28;2462;-65
2024/02/29 05:14:43;;;;;;;;;;;;;;;19.67;46.01;101425.31;2067354;28;2594;-65
2024/02/29 05:15:45;;;;;;;;;;;;;;;19.67;46.02;101416.69;2066965;28;2455;-64
2024/02/29 05:16:46;;;;;;;;;;;;;;;19.66;45.97;101418.09;2066787;28;2491;-65
2024/02/29 05:17:48;;;;;;;;;;;;;;;19.67;46.12;101419.56;2065120;28;2464;-65
2024/02/29 05:18:49;;;;;;;;;;;;;;;19.67;46.12;101413.81;2066344;28;2474;-65
2024/02/29 05:19:51;;;;;;;;;;;;;;;19.67;46.04;101407.34;2066132;28;2455;-64
2024/02/29 05:20:53;;;;;;;;;;;;;;;19.69;45.92;101412.50;2066555;28;2654;-64
2024/02/29 05:21:55;;;;;;;;;;;;;;;19.69;46.09;101418.22;2067102;28;2500;-65